sensor_id;sensor_type;location;lat;lon;timestamp;P1;durP1;ratioP1;P2;durP2;ratioP2
70303;SDS011;57712;48.752;11.348;2023-02-01T00:02:10;8.93;;;3.13;;
70303;SDS011;57712;48.752;11.348;2023-02-01T00:04:37;7.90;;;3.37;;
70303;SDS011;57712;48.752;11.348;2023-02-01T00:07:03;7.15;;;3.10;;
70303;SDS011;57712;48.752;11.348;2023-02-01T00:09:30;8.45;;;2.88;;
70303;SDS011;57712;48.752;11.348;2023-02-01T00:11:57;7.00;;;2.92;;
70303;SDS011;57712;48.752;11.348;2023-02-01T00:14:25;8.73;;;3.83;;
70303;SDS011;57712;48.752;11.348;2023-02-01T00:16:52;7.53;;;3.07;;
70303;SDS011;57712;48.752;11.348;2023-02-01T00:19:18;8.38;;;3.17;;
70303;SDS011;57712;48.752;11.348;2023-02-01T00:21:46;10.25;;;3.72;;
70303;SDS011;57712;48.752;11.348;2023-02-01T00:24:12;8.05;;;3.20;;
70303;SDS011;57712;48.752;11.348;2023-02-01T00:26:40;7.82;;;2.80;;
70303;SDS011;57712;48.752;11.348;2023-02-01T00:29:10;8.63;;;3.10;;
70303;SDS011;57712;48.752;11.348;2023-02-01T00:31:39;6.85;;;2.72;;
70303;SDS011;57712;48.752;11.348;2023-02-01T00:34:05;7.60;;;2.70;;
70303;SDS011;57712;48.752;11.348;2023-02-01T00:36:32;8.73;;;2.97;;
70303;SDS011;57712;48.752;11.348;2023-02-01T00:38:59;8.40;;;3.08;;
70303;SDS011;57712;48.752;11.348;2023-02-01T00:41:26;7.13;;;3.30;;
70303;SDS011;57712;48.752;11.348;2023-02-01T00:43:53;9.10;;;3.40;;
70303;SDS011;57712;48.752;11.348;2023-02-01T00:46:19;9.50;;;3.25;;
70303;SDS011;57712;48.752;11.348;2023-02-01T00:48:48;8.18;;;2.80;;
70303;SDS011;57712;48.752;11.348;2023-02-01T00:51:16;7.53;;;3.20;;
70303;SDS011;57712;48.752;11.348;2023-02-01T00:53:45;6.95;;;2.80;;
70303;SDS011;57712;48.752;11.348;2023-02-01T00:56:12;8.00;;;2.70;;
70303;SDS011;57712;48.752;11.348;2023-02-01T00:58:38;9.27;;;3.13;;
70303;SDS011;57712;48.752;11.348;2023-02-01T01:03:42;8.30;;;2.90;;
70303;SDS011;57712;48.752;11.348;2023-02-01T01:06:12;9.03;;;3.17;;
70303;SDS011;57712;48.752;11.348;2023-02-01T01:08:41;6.88;;;3.03;;
70303;SDS011;57712;48.752;11.348;2023-02-01T01:11:10;8.10;;;3.63;;
70303;SDS011;57712;48.752;11.348;2023-02-01T01:13:42;7.15;;;2.20;;
70303;SDS011;57712;48.752;11.348;2023-02-01T01:16:10;8.00;;;2.90;;
70303;SDS011;57712;48.752;11.348;2023-02-01T01:18:37;8.57;;;3.67;;
70303;SDS011;57712;48.752;11.348;2023-02-01T01:21:04;7.88;;;3.38;;
70303;SDS011;57712;48.752;11.348;2023-02-01T01:23:31;8.73;;;2.70;;
70303;SDS011;57712;48.752;11.348;2023-02-01T01:25:58;8.55;;;2.92;;
70303;SDS011;57712;48.752;11.348;2023-02-01T01:28:24;8.60;;;2.97;;
70303;SDS011;57712;48.752;11.348;2023-02-01T01:30:51;8.57;;;2.53;;
70303;SDS011;57712;48.752;11.348;2023-02-01T01:33:18;8.18;;;3.35;;
70303;SDS011;57712;48.752;11.348;2023-02-01T01:35:44;8.30;;;3.03;;
70303;SDS011;57712;48.752;11.348;2023-02-01T01:38:11;8.23;;;3.00;;
70303;SDS011;57712;48.752;11.348;2023-02-01T01:40:37;7.70;;;3.38;;
70303;SDS011;57712;48.752;11.348;2023-02-01T01:43:14;9.00;;;3.87;;
70303;SDS011;57712;48.752;11.348;2023-02-01T01:45:43;7.85;;;3.63;;
70303;SDS011;57712;48.752;11.348;2023-02-01T01:50:53;7.85;;;3.40;;
70303;SDS011;57712;48.752;11.348;2023-02-01T01:53:36;7.32;;;3.00;;
70303;SDS011;57712;48.752;11.348;2023-02-01T01:56:08;8.07;;;3.17;;
70303;SDS011;57712;48.752;11.348;2023-02-01T01:58:34;7.40;;;2.97;;
70303;SDS011;57712;48.752;11.348;2023-02-01T02:01:01;9.68;;;3.72;;
70303;SDS011;57712;48.752;11.348;2023-02-01T02:03:43;8.45;;;3.00;;
70303;SDS011;57712;48.752;11.348;2023-02-01T02:06:16;8.48;;;2.63;;
70303;SDS011;57712;48.752;11.348;2023-02-01T02:08:53;8.67;;;2.70;;
70303;SDS011;57712;48.752;11.348;2023-02-01T02:11:20;7.07;;;2.72;;
70303;SDS011;57712;48.752;11.348;2023-02-01T02:13:50;8.23;;;3.10;;
70303;SDS011;57712;48.752;11.348;2023-02-01T02:34:33;6.10;;;2.15;;
70303;SDS011;57712;48.752;11.348;2023-02-01T02:42:25;7.68;;;2.90;;
70303;SDS011;57712;48.752;11.348;2023-02-01T02:45:38;6.90;;;2.50;;
70303;SDS011;57712;48.752;11.348;2023-02-01T02:48:33;6.53;;;2.70;;
70303;SDS011;57712;48.752;11.348;2023-02-01T02:51:15;8.70;;;3.20;;
70303;SDS011;57712;48.752;11.348;2023-02-01T02:54:12;7.68;;;2.75;;
70303;SDS011;57712;48.752;11.348;2023-02-01T02:57:02;7.35;;;2.65;;
70303;SDS011;57712;48.752;11.348;2023-02-01T02:59:51;6.30;;;2.30;;
70303;SDS011;57712;48.752;11.348;2023-02-01T03:02:37;7.32;;;2.63;;
70303;SDS011;57712;48.752;11.348;2023-02-01T03:05:23;7.03;;;2.53;;
70303;SDS011;57712;48.752;11.348;2023-02-01T03:10:48;6.82;;;2.47;;
70303;SDS011;57712;48.752;11.348;2023-02-01T03:13:40;7.07;;;2.67;;
70303;SDS011;57712;48.752;11.348;2023-02-01T03:16:13;9.38;;;3.08;;
70303;SDS011;57712;48.752;11.348;2023-02-01T03:18:45;8.43;;;2.97;;
70303;SDS011;57712;48.752;11.348;2023-02-01T03:21:26;7.07;;;2.90;;
70303;SDS011;57712;48.752;11.348;2023-02-01T03:23:59;8.30;;;2.72;;
70303;SDS011;57712;48.752;11.348;2023-02-01T03:26:31;6.90;;;3.10;;
70303;SDS011;57712;48.752;11.348;2023-02-01T03:29:08;7.85;;;3.03;;
70303;SDS011;57712;48.752;11.348;2023-02-01T03:31:40;6.57;;;2.78;;
70303;SDS011;57712;48.752;11.348;2023-02-01T03:34:07;8.95;;;3.10;;
70303;SDS011;57712;48.752;11.348;2023-02-01T03:36:35;7.60;;;2.58;;
70303;SDS011;57712;48.752;11.348;2023-02-01T03:39:15;7.38;;;2.88;;
70303;SDS011;57712;48.752;11.348;2023-02-01T03:41:53;6.97;;;2.60;;
70303;SDS011;57712;48.752;11.348;2023-02-01T03:44:36;7.30;;;2.90;;
70303;SDS011;57712;48.752;11.348;2023-02-01T03:47:05;6.93;;;2.63;;
70303;SDS011;57712;48.752;11.348;2023-02-01T03:49:47;7.97;;;2.50;;
70303;SDS011;57712;48.752;11.348;2023-02-01T03:52:18;7.10;;;2.90;;
70303;SDS011;57712;48.752;11.348;2023-02-01T03:54:51;7.65;;;2.85;;
70303;SDS011;57712;48.752;11.348;2023-02-01T03:57:20;6.22;;;2.53;;
70303;SDS011;57712;48.752;11.348;2023-02-01T03:59:52;8.60;;;2.88;;
70303;SDS011;57712;48.752;11.348;2023-02-01T04:02:19;7.45;;;2.38;;
70303;SDS011;57712;48.752;11.348;2023-02-01T04:04:45;5.72;;;2.55;;
70303;SDS011;57712;48.752;11.348;2023-02-01T04:07:12;6.57;;;2.10;;
70303;SDS011;57712;48.752;11.348;2023-02-01T04:09:38;6.07;;;2.43;;
70303;SDS011;57712;48.752;11.348;2023-02-01T04:12:05;6.63;;;2.30;;
70303;SDS011;57712;48.752;11.348;2023-02-01T04:14:31;5.60;;;2.20;;
70303;SDS011;57712;48.752;11.348;2023-02-01T04:16:58;6.10;;;2.20;;
70303;SDS011;57712;48.752;11.348;2023-02-01T04:19:24;7.75;;;2.17;;
70303;SDS011;57712;48.752;11.348;2023-02-01T04:21:51;5.80;;;2.10;;
70303;SDS011;57712;48.752;11.348;2023-02-01T04:24:18;7.03;;;2.08;;
70303;SDS011;57712;48.752;11.348;2023-02-01T04:26:44;5.45;;;2.00;;
70303;SDS011;57712;48.752;11.348;2023-02-01T04:29:11;5.82;;;2.50;;
70303;SDS011;57712;48.752;11.348;2023-02-01T04:31:38;7.25;;;2.17;;
70303;SDS011;57712;48.752;11.348;2023-02-01T04:34:04;8.67;;;2.90;;
70303;SDS011;57712;48.752;11.348;2023-02-01T04:36:31;7.90;;;2.25;;
70303;SDS011;57712;48.752;11.348;2023-02-01T04:38:57;9.52;;;3.60;;
70303;SDS011;57712;48.752;11.348;2023-02-01T04:41:27;7.85;;;2.92;;
70303;SDS011;57712;48.752;11.348;2023-02-01T04:43:53;11.15;;;4.97;;
70303;SDS011;57712;48.752;11.348;2023-02-01T04:46:20;6.93;;;2.67;;
70303;SDS011;57712;48.752;11.348;2023-02-01T04:48:46;5.47;;;2.33;;
70303;SDS011;57712;48.752;11.348;2023-02-01T04:51:13;6.47;;;2.17;;
70303;SDS011;57712;48.752;11.348;2023-02-01T04:53:41;5.72;;;2.17;;
70303;SDS011;57712;48.752;11.348;2023-02-01T04:56:07;5.43;;;1.73;;
70303;SDS011;57712;48.752;11.348;2023-02-01T04:58:34;5.13;;;1.70;;
70303;SDS011;57712;48.752;11.348;2023-02-01T05:01:04;5.72;;;2.17;;
70303;SDS011;57712;48.752;11.348;2023-02-01T05:03:34;6.35;;;2.15;;
70303;SDS011;57712;48.752;11.348;2023-02-01T05:06:01;6.72;;;2.13;;
70303;SDS011;57712;48.752;11.348;2023-02-01T05:08:30;5.93;;;2.53;;
70303;SDS011;57712;48.752;11.348;2023-02-01T05:10:57;5.77;;;2.00;;
70303;SDS011;57712;48.752;11.348;2023-02-01T05:13:25;5.57;;;2.00;;
70303;SDS011;57712;48.752;11.348;2023-02-01T05:16:09;5.97;;;1.98;;
70303;SDS011;57712;48.752;11.348;2023-02-01T05:18:36;5.80;;;1.80;;
70303;SDS011;57712;48.752;11.348;2023-02-01T05:21:02;5.45;;;2.00;;
70303;SDS011;57712;48.752;11.348;2023-02-01T05:23:29;5.90;;;2.33;;
70303;SDS011;57712;48.752;11.348;2023-02-01T05:25:59;5.65;;;2.40;;
70303;SDS011;57712;48.752;11.348;2023-02-01T05:28:27;5.65;;;2.00;;
70303;SDS011;57712;48.752;11.348;2023-02-01T05:30:54;5.30;;;1.70;;
70303;SDS011;57712;48.752;11.348;2023-02-01T05:33:21;5.72;;;2.08;;
70303;SDS011;57712;48.752;11.348;2023-02-01T05:35:49;5.27;;;1.70;;
70303;SDS011;57712;48.752;11.348;2023-02-01T05:38:16;5.43;;;2.03;;
70303;SDS011;57712;48.752;11.348;2023-02-01T05:40:43;5.95;;;1.85;;
70303;SDS011;57712;48.752;11.348;2023-02-01T05:43:15;5.78;;;2.00;;
70303;SDS011;57712;48.752;11.348;2023-02-01T05:45:42;6.32;;;2.38;;
70303;SDS011;57712;48.752;11.348;2023-02-01T05:48:09;4.97;;;1.50;;
70303;SDS011;57712;48.752;11.348;2023-02-01T05:50:35;5.10;;;2.08;;
70303;SDS011;57712;48.752;11.348;2023-02-01T05:53:02;5.88;;;1.58;;
70303;SDS011;57712;48.752;11.348;2023-02-01T05:55:28;5.00;;;1.50;;
70303;SDS011;57712;48.752;11.348;2023-02-01T05:57:55;5.05;;;1.80;;
70303;SDS011;57712;48.752;11.348;2023-02-01T06:00:21;4.60;;;1.43;;
70303;SDS011;57712;48.752;11.348;2023-02-01T06:02:49;4.65;;;1.63;;
70303;SDS011;57712;48.752;11.348;2023-02-01T06:05:16;5.03;;;1.58;;
70303;SDS011;57712;48.752;11.348;2023-02-01T06:07:42;5.18;;;1.42;;
70303;SDS011;57712;48.752;11.348;2023-02-01T06:10:09;5.18;;;1.80;;
70303;SDS011;57712;48.752;11.348;2023-02-01T06:12:36;4.63;;;1.47;;
70303;SDS011;57712;48.752;11.348;2023-02-01T06:15:03;4.88;;;1.77;;
70303;SDS011;57712;48.752;11.348;2023-02-01T06:17:29;5.97;;;1.65;;
70303;SDS011;57712;48.752;11.348;2023-02-01T06:19:56;4.60;;;1.77;;
70303;SDS011;57712;48.752;11.348;2023-02-01T06:22:23;6.40;;;1.85;;
70303;SDS011;57712;48.752;11.348;2023-02-01T06:24:49;5.37;;;1.93;;
70303;SDS011;57712;48.752;11.348;2023-02-01T06:27:16;5.07;;;1.70;;
70303;SDS011;57712;48.752;11.348;2023-02-01T06:29:42;5.53;;;1.63;;
70303;SDS011;57712;48.752;11.348;2023-02-01T06:32:09;4.70;;;1.67;;
70303;SDS011;57712;48.752;11.348;2023-02-01T06:34:36;6.47;;;1.92;;
70303;SDS011;57712;48.752;11.348;2023-02-01T06:37:03;5.13;;;1.73;;
70303;SDS011;57712;48.752;11.348;2023-02-01T06:39:30;4.97;;;2.03;;
70303;SDS011;57712;48.752;11.348;2023-02-01T06:41:56;4.93;;;1.73;;
70303;SDS011;57712;48.752;11.348;2023-02-01T06:44:23;5.22;;;1.55;;
70303;SDS011;57712;48.752;11.348;2023-02-01T06:46:49;6.00;;;2.00;;
70303;SDS011;57712;48.752;11.348;2023-02-01T06:49:16;4.50;;;1.50;;
70303;SDS011;57712;48.752;11.348;2023-02-01T06:51:43;5.60;;;2.10;;
70303;SDS011;57712;48.752;11.348;2023-02-01T06:54:09;4.80;;;1.70;;
70303;SDS011;57712;48.752;11.348;2023-02-01T06:56:36;5.28;;;1.90;;
70303;SDS011;57712;48.752;11.348;2023-02-01T06:59:03;6.20;;;2.03;;
70303;SDS011;57712;48.752;11.348;2023-02-01T07:01:33;5.33;;;2.00;;
70303;SDS011;57712;48.752;11.348;2023-02-01T07:04:00;6.40;;;1.90;;
70303;SDS011;57712;48.752;11.348;2023-02-01T07:06:27;5.43;;;1.60;;
70303;SDS011;57712;48.752;11.348;2023-02-01T07:08:53;5.55;;;1.90;;
70303;SDS011;57712;48.752;11.348;2023-02-01T07:11:21;4.93;;;1.90;;
70303;SDS011;57712;48.752;11.348;2023-02-01T07:13:48;5.70;;;2.00;;
70303;SDS011;57712;48.752;11.348;2023-02-01T07:16:17;5.20;;;1.50;;
70303;SDS011;57712;48.752;11.348;2023-02-01T07:18:45;5.00;;;1.95;;
70303;SDS011;57712;48.752;11.348;2023-02-01T07:21:12;5.28;;;1.58;;
70303;SDS011;57712;48.752;11.348;2023-02-01T07:23:39;4.50;;;1.40;;
70303;SDS011;57712;48.752;11.348;2023-02-01T07:26:06;4.50;;;1.17;;
70303;SDS011;57712;48.752;11.348;2023-02-01T07:28:34;4.43;;;1.48;;
70303;SDS011;57712;48.752;11.348;2023-02-01T07:31:05;4.95;;;1.58;;
70303;SDS011;57712;48.752;11.348;2023-02-01T07:33:33;5.90;;;1.63;;
70303;SDS011;57712;48.752;11.348;2023-02-01T07:36:04;5.80;;;2.10;;
70303;SDS011;57712;48.752;11.348;2023-02-01T07:38:32;5.43;;;1.77;;
70303;SDS011;57712;48.752;11.348;2023-02-01T07:41:02;5.80;;;2.20;;
70303;SDS011;57712;48.752;11.348;2023-02-01T07:43:30;5.32;;;1.50;;
70303;SDS011;57712;48.752;11.348;2023-02-01T07:45:59;5.65;;;1.98;;
70303;SDS011;57712;48.752;11.348;2023-02-01T07:48:26;5.65;;;2.03;;
70303;SDS011;57712;48.752;11.348;2023-02-01T07:50:57;4.70;;;1.57;;
70303;SDS011;57712;48.752;11.348;2023-02-01T07:53:29;4.70;;;1.58;;
70303;SDS011;57712;48.752;11.348;2023-02-01T07:55:57;6.20;;;1.70;;
70303;SDS011;57712;48.752;11.348;2023-02-01T07:58:24;5.78;;;2.10;;
70303;SDS011;57712;48.752;11.348;2023-02-01T08:00:51;5.20;;;1.70;;
70303;SDS011;57712;48.752;11.348;2023-02-01T08:03:37;4.90;;;1.80;;
70303;SDS011;57712;48.752;11.348;2023-02-01T08:06:04;6.22;;;2.50;;
70303;SDS011;57712;48.752;11.348;2023-02-01T08:08:31;6.43;;;2.70;;
70303;SDS011;57712;48.752;11.348;2023-02-01T08:10:58;5.32;;;1.90;;
70303;SDS011;57712;48.752;11.348;2023-02-01T08:13:25;6.90;;;2.42;;
70303;SDS011;57712;48.752;11.348;2023-02-01T08:15:52;6.27;;;2.60;;
70303;SDS011;57712;48.752;11.348;2023-02-01T08:18:18;6.75;;;2.33;;
70303;SDS011;57712;48.752;11.348;2023-02-01T08:20:45;6.82;;;2.60;;
70303;SDS011;57712;48.752;11.348;2023-02-01T08:23:11;6.70;;;2.50;;
70303;SDS011;57712;48.752;11.348;2023-02-01T08:25:38;6.93;;;2.78;;
70303;SDS011;57712;48.752;11.348;2023-02-01T08:28:08;6.83;;;2.43;;
70303;SDS011;57712;48.752;11.348;2023-02-01T08:30:36;8.18;;;2.88;;
70303;SDS011;57712;48.752;11.348;2023-02-01T08:33:04;7.03;;;2.70;;
70303;SDS011;57712;48.752;11.348;2023-02-01T08:35:35;8.02;;;2.90;;
70303;SDS011;57712;48.752;11.348;2023-02-01T08:38:09;5.93;;;2.28;;
70303;SDS011;57712;48.752;11.348;2023-02-01T08:40:35;7.03;;;3.17;;
70303;SDS011;57712;48.752;11.348;2023-02-01T08:43:02;7.07;;;2.95;;
70303;SDS011;57712;48.752;11.348;2023-02-01T08:45:28;6.60;;;2.63;;
70303;SDS011;57712;48.752;11.348;2023-02-01T08:47:56;8.52;;;2.80;;
70303;SDS011;57712;48.752;11.348;2023-02-01T08:50:23;7.25;;;2.42;;
70303;SDS011;57712;48.752;11.348;2023-02-01T08:52:51;7.20;;;2.90;;
70303;SDS011;57712;48.752;11.348;2023-02-01T08:55:18;8.48;;;3.60;;
70303;SDS011;57712;48.752;11.348;2023-02-01T08:57:45;7.97;;;3.00;;
70303;SDS011;57712;48.752;11.348;2023-02-01T09:00:13;6.47;;;2.90;;
70303;SDS011;57712;48.752;11.348;2023-02-01T09:02:43;9.45;;;3.55;;
70303;SDS011;57712;48.752;11.348;2023-02-01T09:05:09;5.53;;;2.00;;
70303;SDS011;57712;48.752;11.348;2023-02-01T09:07:37;7.32;;;2.67;;
70303;SDS011;57712;48.752;11.348;2023-02-01T09:10:04;7.00;;;2.97;;
70303;SDS011;57712;48.752;11.348;2023-02-01T09:12:31;6.88;;;2.92;;
70303;SDS011;57712;48.752;11.348;2023-02-01T09:14:59;7.38;;;2.88;;
70303;SDS011;57712;48.752;11.348;2023-02-01T09:17:26;5.93;;;2.33;;
70303;SDS011;57712;48.752;11.348;2023-02-01T09:19:59;7.38;;;2.75;;
70303;SDS011;57712;48.752;11.348;2023-02-01T09:22:25;6.22;;;2.50;;
70303;SDS011;57712;48.752;11.348;2023-02-01T09:24:52;6.53;;;2.15;;
70303;SDS011;57712;48.752;11.348;2023-02-01T09:27:20;5.55;;;1.90;;
70303;SDS011;57712;48.752;11.348;2023-02-01T09:29:47;6.10;;;2.00;;
70303;SDS011;57712;48.752;11.348;2023-02-01T09:32:19;6.30;;;2.25;;
70303;SDS011;57712;48.752;11.348;2023-02-01T09:34:46;6.10;;;2.47;;
70303;SDS011;57712;48.752;11.348;2023-02-01T09:37:13;5.95;;;2.20;;
70303;SDS011;57712;48.752;11.348;2023-02-01T09:39:40;6.78;;;2.70;;
70303;SDS011;57712;48.752;11.348;2023-02-01T09:42:16;6.60;;;2.57;;
70303;SDS011;57712;48.752;11.348;2023-02-01T09:45:06;6.95;;;2.17;;
70303;SDS011;57712;48.752;11.348;2023-02-01T09:47:43;5.78;;;2.10;;
70303;SDS011;57712;48.752;11.348;2023-02-01T09:56:05;6.37;;;2.20;;
70303;SDS011;57712;48.752;11.348;2023-02-01T09:58:39;5.57;;;1.80;;
70303;SDS011;57712;48.752;11.348;2023-02-01T10:01:30;6.18;;;1.98;;
70303;SDS011;57712;48.752;11.348;2023-02-01T10:03:59;4.82;;;2.05;;
70303;SDS011;57712;48.752;11.348;2023-02-01T10:09:25;7.13;;;2.73;;
70303;SDS011;57712;48.752;11.348;2023-02-01T10:15:22;7.63;;;3.15;;
70303;SDS011;57712;48.752;11.348;2023-02-01T10:18:07;7.30;;;3.20;;
70303;SDS011;57712;48.752;11.348;2023-02-01T10:23:34;8.77;;;3.27;;
70303;SDS011;57712;48.752;11.348;2023-02-01T10:26:19;8.20;;;3.97;;
70303;SDS011;57712;48.752;11.348;2023-02-01T10:28:49;10.63;;;4.00;;
70303;SDS011;57712;48.752;11.348;2023-02-01T10:31:25;8.05;;;4.57;;
70303;SDS011;57712;48.752;11.348;2023-02-01T10:33:58;9.02;;;4.63;;
70303;SDS011;57712;48.752;11.348;2023-02-01T10:39:02;10.45;;;4.50;;
70303;SDS011;57712;48.752;11.348;2023-02-01T10:41:34;9.85;;;5.40;;
70303;SDS011;57712;48.752;11.348;2023-02-01T10:44:04;9.35;;;5.30;;
70303;SDS011;57712;48.752;11.348;2023-02-01T10:46:36;8.50;;;4.85;;
70303;SDS011;57712;48.752;11.348;2023-02-01T10:49:04;10.33;;;4.00;;
70303;SDS011;57712;48.752;11.348;2023-02-01T10:54:32;9.02;;;3.95;;
70303;SDS011;57712;48.752;11.348;2023-02-01T10:57:00;8.77;;;3.45;;
70303;SDS011;57712;48.752;11.348;2023-02-01T10:59:28;8.60;;;4.00;;
70303;SDS011;57712;48.752;11.348;2023-02-01T11:01:59;9.83;;;4.63;;
70303;SDS011;57712;48.752;11.348;2023-02-01T11:04:30;8.75;;;4.00;;
70303;SDS011;57712;48.752;11.348;2023-02-01T11:07:06;8.07;;;3.72;;
70303;SDS011;57712;48.752;11.348;2023-02-01T11:09:54;9.93;;;3.00;;
70303;SDS011;57712;48.752;11.348;2023-02-01T11:12:30;8.50;;;3.53;;
70303;SDS011;57712;48.752;11.348;2023-02-01T11:14:59;8.10;;;3.67;;
70303;SDS011;57712;48.752;11.348;2023-02-01T11:17:34;8.55;;;3.47;;
70303;SDS011;57712;48.752;11.348;2023-02-01T11:20:08;7.80;;;3.53;;
70303;SDS011;57712;48.752;11.348;2023-02-01T11:22:45;8.60;;;3.50;;
70303;SDS011;57712;48.752;11.348;2023-02-01T11:25:15;9.25;;;3.88;;
70303;SDS011;57712;48.752;11.348;2023-02-01T11:27:44;9.70;;;4.23;;
70303;SDS011;57712;48.752;11.348;2023-02-01T11:30:29;8.57;;;4.22;;
70303;SDS011;57712;48.752;11.348;2023-02-01T11:32:59;9.43;;;4.40;;
70303;SDS011;57712;48.752;11.348;2023-02-01T11:35:29;10.20;;;3.97;;
70303;SDS011;57712;48.752;11.348;2023-02-01T11:37:59;13.40;;;4.20;;
70303;SDS011;57712;48.752;11.348;2023-02-01T11:40:35;9.30;;;3.20;;
70303;SDS011;57712;48.752;11.348;2023-02-01T11:45:55;10.13;;;3.65;;
70303;SDS011;57712;48.752;11.348;2023-02-01T11:48:25;8.38;;;3.30;;
70303;SDS011;57712;48.752;11.348;2023-02-01T11:59:12;8.18;;;3.00;;
70303;SDS011;57712;48.752;11.348;2023-02-01T12:05:17;8.07;;;3.15;;
70303;SDS011;57712;48.752;11.348;2023-02-01T12:10:42;10.10;;;3.78;;
70303;SDS011;57712;48.752;11.348;2023-02-01T12:16:02;9.02;;;3.55;;
70303;SDS011;57712;48.752;11.348;2023-02-01T12:22:15;8.57;;;4.30;;
70303;SDS011;57712;48.752;11.348;2023-02-01T12:24:48;8.00;;;3.55;;
70303;SDS011;57712;48.752;11.348;2023-02-01T12:27:45;8.32;;;3.92;;
70303;SDS011;57712;48.752;11.348;2023-02-01T12:33:07;9.00;;;3.90;;
70303;SDS011;57712;48.752;11.348;2023-02-01T12:35:44;8.00;;;4.10;;
70303;SDS011;57712;48.752;11.348;2023-02-01T12:38:16;7.78;;;3.33;;
70303;SDS011;57712;48.752;11.348;2023-02-01T12:43:25;7.30;;;3.60;;
70303;SDS011;57712;48.752;11.348;2023-02-01T12:46:09;8.30;;;3.92;;
70303;SDS011;57712;48.752;11.348;2023-02-01T12:48:58;9.33;;;4.23;;
70303;SDS011;57712;48.752;11.348;2023-02-01T12:51:37;12.85;;;5.53;;
70303;SDS011;57712;48.752;11.348;2023-02-01T12:57:16;9.70;;;4.15;;
70303;SDS011;57712;48.752;11.348;2023-02-01T13:05:50;8.35;;;2.90;;
70303;SDS011;57712;48.752;11.348;2023-02-01T13:08:22;7.88;;;3.38;;
70303;SDS011;57712;48.752;11.348;2023-02-01T13:11:26;8.38;;;2.92;;
70303;SDS011;57712;48.752;11.348;2023-02-01T13:19:51;9.32;;;3.38;;
70303;SDS011;57712;48.752;11.348;2023-02-01T13:25:12;9.18;;;3.78;;
70303;SDS011;57712;48.752;11.348;2023-02-01T13:27:42;9.32;;;3.38;;
70303;SDS011;57712;48.752;11.348;2023-02-01T13:30:17;9.47;;;3.50;;
70303;SDS011;57712;48.752;11.348;2023-02-01T13:41:41;9.73;;;3.63;;
70303;SDS011;57712;48.752;11.348;2023-02-01T13:44:20;11.47;;;3.23;;
70303;SDS011;57712;48.752;11.348;2023-02-01T13:46:56;10.93;;;3.92;;
70303;SDS011;57712;48.752;11.348;2023-02-01T13:49:26;11.52;;;3.15;;
70303;SDS011;57712;48.752;11.348;2023-02-01T13:51:56;11.77;;;2.42;;
70303;SDS011;57712;48.752;11.348;2023-02-01T13:54:27;8.77;;;2.90;;
70303;SDS011;57712;48.752;11.348;2023-02-01T13:56:59;7.83;;;2.33;;
70303;SDS011;57712;48.752;11.348;2023-02-01T14:11:03;8.10;;;2.37;;
70303;SDS011;57712;48.752;11.348;2023-02-01T14:13:32;8.07;;;2.03;;
70303;SDS011;57712;48.752;11.348;2023-02-01T14:26:23;9.32;;;1.30;;
70303;SDS011;57712;48.752;11.348;2023-02-01T14:29:35;8.32;;;1.70;;
70303;SDS011;57712;48.752;11.348;2023-02-01T14:39:50;8.80;;;1.58;;
70303;SDS011;57712;48.752;11.348;2023-02-01T14:42:24;8.82;;;2.22;;
70303;SDS011;57712;48.752;11.348;2023-02-01T14:44:54;10.40;;;2.00;;
70303;SDS011;57712;48.752;11.348;2023-02-01T14:47:41;8.45;;;2.17;;
70303;SDS011;57712;48.752;11.348;2023-02-01T14:58:39;11.43;;;1.90;;
70303;SDS011;57712;48.752;11.348;2023-02-01T15:04:04;12.77;;;2.90;;
70303;SDS011;57712;48.752;11.348;2023-02-01T15:09:29;9.48;;;2.25;;
70303;SDS011;57712;48.752;11.348;2023-02-01T15:14:44;10.50;;;1.90;;
70303;SDS011;57712;48.752;11.348;2023-02-01T15:17:29;9.30;;;1.70;;
70303;SDS011;57712;48.752;11.348;2023-02-01T15:20:16;10.35;;;2.25;;
70303;SDS011;57712;48.752;11.348;2023-02-01T15:22:57;11.43;;;2.00;;
70303;SDS011;57712;48.752;11.348;2023-02-01T15:27:51;11.15;;;2.80;;
70303;SDS011;57712;48.752;11.348;2023-02-01T15:30:23;12.63;;;3.53;;
70303;SDS011;57712;48.752;11.348;2023-02-01T15:32:50;10.15;;;2.42;;
70303;SDS011;57712;48.752;11.348;2023-02-01T15:41:07;10.07;;;2.70;;
70303;SDS011;57712;48.752;11.348;2023-02-01T15:46:21;10.10;;;1.70;;
70303;SDS011;57712;48.752;11.348;2023-02-01T15:48:55;8.93;;;2.25;;
70303;SDS011;57712;48.752;11.348;2023-02-01T15:51:23;9.25;;;2.17;;
70303;SDS011;57712;48.752;11.348;2023-02-01T15:53:55;7.60;;;1.90;;
70303;SDS011;57712;48.752;11.348;2023-02-01T15:56:25;7.97;;;1.30;;
70303;SDS011;57712;48.752;11.348;2023-02-01T15:58:55;8.43;;;1.65;;
70303;SDS011;57712;48.752;11.348;2023-02-01T16:01:24;6.35;;;1.65;;
70303;SDS011;57712;48.752;11.348;2023-02-01T16:04:02;12.13;;;2.00;;
70303;SDS011;57712;48.752;11.348;2023-02-01T16:06:35;9.63;;;2.28;;
70303;SDS011;57712;48.752;11.348;2023-02-01T16:09:12;9.37;;;2.67;;
70303;SDS011;57712;48.752;11.348;2023-02-01T16:11:56;13.60;;;2.13;;
70303;SDS011;57712;48.752;11.348;2023-02-01T16:14:25;6.28;;;1.60;;
70303;SDS011;57712;48.752;11.348;2023-02-01T16:16:52;8.90;;;1.50;;
70303;SDS011;57712;48.752;11.348;2023-02-01T16:19:20;8.82;;;1.80;;
70303;SDS011;57712;48.752;11.348;2023-02-01T16:21:47;6.07;;;1.53;;
70303;SDS011;57712;48.752;11.348;2023-02-01T16:24:13;7.45;;;1.52;;
70303;SDS011;57712;48.752;11.348;2023-02-01T16:26:40;7.95;;;2.17;;
70303;SDS011;57712;48.752;11.348;2023-02-01T16:29:06;7.45;;;1.52;;
70303;SDS011;57712;48.752;11.348;2023-02-01T16:31:38;9.55;;;2.00;;
70303;SDS011;57712;48.752;11.348;2023-02-01T16:34:05;5.97;;;1.23;;
70303;SDS011;57712;48.752;11.348;2023-02-01T16:36:36;10.35;;;1.80;;
70303;SDS011;57712;48.752;11.348;2023-02-01T16:39:03;7.72;;;1.48;;
70303;SDS011;57712;48.752;11.348;2023-02-01T16:41:30;7.50;;;1.70;;
70303;SDS011;57712;48.752;11.348;2023-02-01T16:43:56;9.27;;;2.05;;
70303;SDS011;57712;48.752;11.348;2023-02-01T16:46:24;7.57;;;1.10;;
70303;SDS011;57712;48.752;11.348;2023-02-01T16:48:56;8.05;;;1.77;;
70303;SDS011;57712;48.752;11.348;2023-02-01T16:51:25;7.13;;;1.90;;
70303;SDS011;57712;48.752;11.348;2023-02-01T16:53:55;5.68;;;1.42;;
70303;SDS011;57712;48.752;11.348;2023-02-01T16:56:23;10.23;;;1.98;;
70303;SDS011;57712;48.752;11.348;2023-02-01T16:58:59;9.80;;;2.20;;
70303;SDS011;57712;48.752;11.348;2023-02-01T17:01:26;9.15;;;1.50;;
70303;SDS011;57712;48.752;11.348;2023-02-01T17:03:53;6.93;;;1.98;;
70303;SDS011;57712;48.752;11.348;2023-02-01T17:06:20;8.15;;;1.90;;
70303;SDS011;57712;48.752;11.348;2023-02-01T17:08:54;11.50;;;3.47;;
70303;SDS011;57712;48.752;11.348;2023-02-01T17:11:24;12.20;;;2.40;;
70303;SDS011;57712;48.752;11.348;2023-02-01T17:13:51;12.52;;;2.60;;
70303;SDS011;57712;48.752;11.348;2023-02-01T17:18:45;8.10;;;1.75;;
70303;SDS011;57712;48.752;11.348;2023-02-01T17:21:16;6.93;;;1.52;;
70303;SDS011;57712;48.752;11.348;2023-02-01T17:23:43;10.80;;;1.70;;
70303;SDS011;57712;48.752;11.348;2023-02-01T17:26:11;9.02;;;3.13;;
70303;SDS011;57712;48.752;11.348;2023-02-01T17:28:38;8.10;;;1.77;;
70303;SDS011;57712;48.752;11.348;2023-02-01T17:31:04;10.18;;;1.60;;
70303;SDS011;57712;48.752;11.348;2023-02-01T17:33:33;9.40;;;2.42;;
70303;SDS011;57712;48.752;11.348;2023-02-01T17:36:02;8.70;;;1.80;;
70303;SDS011;57712;48.752;11.348;2023-02-01T17:38:31;9.00;;;1.75;;
70303;SDS011;57712;48.752;11.348;2023-02-01T17:40:59;11.23;;;2.33;;
70303;SDS011;57712;48.752;11.348;2023-02-01T17:43:26;7.35;;;1.40;;